createdAt,value
2022-11-20T13:49:45.321Z,38.45
2022-11-20T13:52:27.991Z,32.30
2022-11-20T13:55:03.013Z,35.53
2022-11-20T13:57:43.736Z,38.55
2022-11-20T14:00:12.557Z,36.00
2022-11-20T14:02:39.507Z,33.72
2022-11-20T14:05:14.365Z,38.47
2022-11-20T14:07:43.401Z,37.10
2022-11-20T14:10:20.178Z,39.40
2022-11-20T14:12:48.716Z,35.05
2022-11-20T14:15:24.754Z,36.50
2022-11-20T14:17:51.267Z,37.75
2022-11-20T14:20:24.176Z,34.13
2022-11-20T14:22:51.441Z,28.33
2022-11-20T14:25:28.058Z,30.63
2022-11-20T14:27:55.782Z,25.92
2022-11-20T14:30:23.851Z,29.88
2022-11-20T14:32:50.816Z,24.73
2022-11-20T14:35:22.425Z,25.45
2022-11-20T14:37:48.998Z,27.13
2022-11-20T14:40:26.558Z,26.73
2022-11-20T14:42:53.032Z,25.10
2022-11-20T14:45:20.485Z,23.70
2022-11-20T14:47:47.491Z,22.60
2022-11-20T14:50:15.354Z,24.10
2022-11-20T14:52:51.143Z,23.25
2022-11-20T14:55:25.858Z,26.33
2022-11-20T14:57:55.713Z,37.92
2022-11-20T15:00:23.090Z,34.97
2022-11-20T15:02:50.417Z,24.02
2022-11-20T15:05:18.158Z,23.70
2022-11-20T15:07:48.978Z,28.35
2022-11-20T15:10:22.974Z,30.92
2022-11-20T15:15:18.047Z,27.70
2022-11-20T15:17:44.574Z,32.20
2022-11-20T15:20:13.200Z,38.78
2022-11-20T15:22:39.766Z,36.75
2022-11-20T15:25:12.320Z,37.65
2022-11-20T15:27:38.841Z,83.90
2022-11-20T15:30:13.021Z,55.67
2022-11-20T15:32:39.869Z,33.67
2022-11-20T15:35:06.956Z,27.05
2022-11-20T15:37:33.480Z,31.70
2022-11-20T15:40:00.007Z,33.15
2022-11-20T15:42:27.844Z,26.80
2022-11-20T15:44:54.385Z,31.77
2022-11-20T15:47:22.056Z,35.65
2022-11-20T15:49:48.600Z,42.88
2022-11-20T15:52:15.373Z,42.15
2022-11-20T15:54:41.896Z,45.25
2022-11-20T15:57:08.470Z,38.78
2022-11-20T15:59:40.771Z,35.72
2022-11-20T16:02:12.193Z,32.53
2022-11-20T16:04:42.594Z,36.92
2022-11-20T16:07:09.213Z,32.30
2022-11-20T16:09:35.939Z,32.40
2022-11-20T16:12:02.732Z,33.05
2022-11-20T16:14:47.795Z,31.20
2022-11-20T16:17:15.764Z,32.40
2022-11-20T16:19:42.364Z,37.40
2022-11-20T16:22:11.621Z,43.33
2022-11-20T16:24:38.197Z,56.38
2022-11-20T16:27:04.723Z,21.17
2022-11-20T16:29:31.373Z,15.63
2022-11-20T16:31:58.019Z,12.80
2022-11-20T16:34:26.043Z,10.30
2022-11-20T16:36:52.685Z,11.82
2022-11-20T16:39:23.701Z,11.63
2022-11-20T16:41:50.615Z,11.13
2022-11-20T16:44:17.161Z,8.93
2022-11-20T16:46:43.715Z,27.15
2022-11-20T16:50:49.431Z,10.70
2022-11-20T16:53:16.493Z,10.50
2022-11-20T16:55:43.270Z,10.00
2022-11-20T16:58:10.169Z,8.25
2022-11-20T17:00:37.775Z,8.20
2022-11-20T17:03:04.804Z,6.40
2022-11-20T17:05:32.332Z,6.28
2022-11-20T17:08:00.887Z,6.40
2022-11-20T17:10:30.749Z,7.30
2022-11-20T17:12:57.575Z,5.90
2022-11-20T17:15:24.327Z,6.57
2022-11-20T17:17:51.107Z,8.50
2022-11-20T17:20:17.756Z,7.30
2022-11-20T17:22:44.428Z,8.48
2022-11-20T17:25:12.556Z,11.82
2022-11-20T17:27:39.613Z,11.20
2022-11-20T17:30:07.307Z,8.88
2022-11-20T17:32:34.047Z,10.30
2022-11-20T17:35:00.829Z,10.60
2022-11-20T17:37:27.487Z,10.02
2022-11-20T17:39:54.236Z,8.63
2022-11-20T17:42:29.552Z,13.55
2022-11-20T17:44:58.776Z,14.93
2022-11-20T17:47:26.213Z,10.55
2022-11-20T17:49:53.707Z,25.67
2022-11-20T17:52:20.570Z,14.00
2022-11-20T17:54:47.378Z,8.00
2022-11-20T17:57:32.545Z,10.50
2022-11-20T18:00:01.863Z,7.15
2022-11-20T18:02:28.615Z,11.18
2022-11-20T18:04:55.287Z,9.07
2022-11-20T18:07:22.468Z,10.88
2022-11-20T18:09:49.512Z,10.43
2022-11-20T18:12:16.760Z,7.35
2022-11-20T18:14:43.814Z,8.13
2022-11-20T18:17:13.987Z,7.13
2022-11-20T18:19:55.529Z,6.38
2022-11-20T18:22:29.640Z,9.25
2022-11-20T18:24:56.417Z,8.95
2022-11-20T18:27:23.913Z,6.53
2022-11-20T18:29:52.267Z,7.30
2022-11-20T18:32:22.067Z,7.80
2022-11-20T18:34:48.898Z,8.15
2022-11-20T18:37:16.659Z,8.32
2022-11-20T18:39:43.965Z,7.50
2022-11-20T18:42:32.028Z,8.45
2022-11-20T18:45:00.279Z,7.55
2022-11-20T18:47:30.899Z,6.88
2022-11-20T18:49:59.994Z,11.60
2022-11-20T18:52:29.268Z,13.00
2022-11-20T18:54:57.198Z,7.65
2022-11-20T18:57:26.558Z,7.78
2022-11-20T18:59:53.833Z,6.25
2022-11-20T19:02:21.864Z,4.68
2022-11-20T19:04:49.883Z,5.55
2022-11-20T19:07:17.076Z,6.63
2022-11-20T19:09:47.701Z,4.97
2022-11-20T19:12:14.543Z,3.53
2022-11-20T19:14:41.374Z,26.35
2022-11-20T19:17:11.069Z,7.10
2022-11-20T19:19:37.815Z,6.95
2022-11-20T19:22:05.894Z,5.35
2022-11-20T19:24:32.702Z,7.63
2022-11-20T19:27:01.580Z,10.35
2022-11-20T19:29:29.059Z,7.43
2022-11-20T19:31:57.964Z,7.95
2022-11-20T19:34:26.076Z,11.05
2022-11-20T19:36:53.217Z,8.40
2022-11-20T19:39:22.735Z,5.05
2022-11-20T19:41:49.737Z,11.18
2022-11-20T19:44:17.657Z,9.43
2022-11-20T19:46:44.692Z,6.43
2022-11-20T19:49:13.519Z,5.13
2022-11-20T19:51:45.869Z,5.10
2022-11-20T19:54:12.844Z,7.90
2022-11-20T19:56:41.031Z,5.47
2022-11-20T19:59:07.864Z,5.60
2022-11-20T20:01:35.565Z,6.07
2022-11-20T20:04:03.630Z,4.45
2022-11-20T20:06:31.159Z,4.50
2022-11-20T20:08:59.562Z,5.32
2022-11-20T20:11:28.243Z,7.07
2022-11-20T20:13:56.442Z,5.85
2022-11-20T20:16:26.356Z,5.70
2022-11-20T20:18:56.184Z,8.00
2022-11-20T20:21:22.970Z,6.30
2022-11-20T20:23:51.338Z,5.00
2022-11-20T20:26:18.271Z,7.95
2022-11-20T20:28:44.970Z,5.80
2022-11-20T20:31:15.572Z,6.45
2022-11-20T20:33:43.078Z,8.75
2022-11-20T20:36:11.820Z,25.65
2022-11-20T20:38:41.131Z,9.02
2022-11-20T20:41:08.159Z,10.57
2022-11-20T20:43:55.646Z,11.10
2022-11-20T20:46:24.151Z,17.55
2022-11-20T20:48:54.401Z,14.57
2022-11-20T20:51:24.665Z,17.08
2022-11-20T20:53:52.999Z,8.95
2022-11-20T20:56:19.925Z,5.72
2022-11-20T20:58:47.556Z,4.82
2022-11-20T21:01:17.210Z,6.32
2022-11-20T21:03:45.527Z,10.80
2022-11-20T21:06:12.540Z,11.48
2022-11-20T21:08:40.904Z,7.22
2022-11-20T21:11:10.873Z,14.48
2022-11-20T21:13:38.839Z,5.57
2022-11-20T21:16:06.853Z,12.63
2022-11-20T21:18:33.720Z,7.95
2022-11-20T21:21:22.753Z,6.03
2022-11-20T21:23:49.735Z,4.60
2022-11-20T21:26:16.497Z,6.68
2022-11-20T21:28:43.477Z,15.05
2022-11-20T21:31:13.408Z,14.77
2022-11-20T21:33:41.803Z,6.45
2022-11-20T21:36:11.504Z,6.40
2022-11-20T21:38:38.578Z,6.22
2022-11-20T21:41:06.743Z,8.45
2022-11-20T21:43:33.705Z,6.32
2022-11-20T21:46:02.005Z,3.92
2022-11-20T21:48:30.314Z,6.97
2022-11-20T21:51:06.444Z,4.75
2022-11-20T21:53:35.612Z,5.75
2022-11-20T21:56:05.810Z,4.53
2022-11-20T21:58:33.921Z,6.63
2022-11-20T22:01:07.182Z,7.20
2022-11-20T22:03:33.858Z,7.10
2022-11-20T22:06:00.782Z,10.27
2022-11-20T22:08:27.577Z,5.45
2022-11-20T22:10:57.170Z,7.28
2022-11-20T22:13:42.794Z,8.88
2022-11-20T22:16:10.509Z,10.90
2022-11-20T22:18:42.759Z,12.05
2022-11-20T22:21:09.683Z,23.40
2022-11-20T22:23:36.644Z,12.35
2022-11-20T22:26:06.298Z,10.35
2022-11-20T22:28:33.322Z,17.02
2022-11-20T22:31:00.572Z,7.32
2022-11-20T22:33:28.610Z,16.23
2022-11-20T22:36:00.778Z,10.27
2022-11-20T22:38:29.594Z,10.02
2022-11-20T22:41:02.016Z,7.55
2022-11-20T22:43:30.737Z,8.77
2022-11-20T22:46:04.561Z,11.93
2022-11-20T22:48:32.976Z,11.88
2022-11-20T22:51:04.640Z,9.07
2022-11-20T22:53:31.414Z,11.35
2022-11-20T22:55:58.249Z,9.80
2022-11-20T22:58:25.045Z,8.52
2022-11-20T23:00:53.256Z,6.68
2022-11-20T23:03:20.378Z,8.05
2022-11-20T23:05:47.191Z,6.60
2022-11-20T23:08:13.961Z,7.97
2022-11-20T23:10:40.725Z,4.78
2022-11-20T23:13:07.580Z,6.93
2022-11-20T23:15:34.678Z,3.88
2022-11-20T23:18:02.716Z,4.95
2022-11-20T23:20:29.748Z,6.63
2022-11-20T23:22:56.464Z,4.32
2022-11-20T23:25:23.277Z,6.50
2022-11-20T23:27:50.001Z,6.35
2022-11-20T23:30:16.927Z,9.18
2022-11-20T23:32:43.682Z,6.60
2022-11-20T23:35:11.780Z,4.40
2022-11-20T23:37:38.451Z,6.60
2022-11-20T23:40:06.536Z,4.60
2022-11-20T23:42:33.701Z,5.97
2022-11-20T23:45:00.392Z,3.67
2022-11-20T23:47:27.147Z,7.22
2022-11-20T23:49:53.823Z,5.88
2022-11-20T23:52:22.316Z,5.13
2022-11-20T23:54:50.544Z,9.55
2022-11-20T23:57:17.258Z,7.68
2022-11-20T23:59:43.968Z,7.80
